Time;durP1;ratioP1;P1;durP2;ratioP2;P2;SDS_P1;SDS_P2;PMS_P1;PMS_P2;Temp;Humidity;BMP_temperature;BMP_pressure;BME280_temperature;BME280_humidity;BME280_pressure;Samples;Min_cycle;Max_cycle;Signal;HPM_P1;HPM_P2
2021/04/28 00:01:19;;;;;;;5.53;5.10;;;11.00;51.50;;;;;;10496169;28;20758;-77
2021/04/28 00:06:22;;;;;;;6.23;5.63;;;11.00;51.40;;;;;;10495516;28;20357;-77
2021/04/28 00:11:23;;;;;;;5.57;4.97;;;10.90;51.40;;;;;;10495198;28;20661;-77
2021/04/28 00:16:25;;;;;;;5.70;5.10;;;10.90;51.30;;;;;;10491022;28;20212;-77
2021/04/28 00:21:28;;;;;;;5.43;4.93;;;10.90;51.60;;;;;;10514111;28;20801;-77
2021/04/28 00:26:30;;;;;;;6.27;5.67;;;10.90;51.60;;;;;;10516761;28;20219;-77
2021/04/28 00:31:32;;;;;;;6.30;5.70;;;10.80;51.40;;;;;;10510745;28;20647;-77
2021/04/28 00:36:34;;;;;;;6.17;5.30;;;10.80;51.80;;;;;;10503938;28;20732;-77
2021/04/28 00:41:36;;;;;;;5.67;5.20;;;10.70;51.90;;;;;;10463543;28;20208;-77
2021/04/28 00:46:38;;;;;;;5.37;4.97;;;10.70;52.00;;;;;;10493728;28;20235;-77
2021/04/28 00:51:40;;;;;;;7.00;5.57;;;10.60;52.20;;;;;;10496058;28;20201;-77
2021/04/28 00:56:43;;;;;;;6.87;6.20;;;10.60;52.30;;;;;;10480335;28;20316;-77
2021/04/28 01:01:44;;;;;;;7.03;6.03;;;10.50;52.50;;;;;;10493914;28;20219;-77
2021/04/28 01:06:48;;;;;;;5.57;5.13;;;10.40;52.60;;;;;;10482466;28;20604;-77
2021/04/28 01:11:51;;;;;;;6.73;6.13;;;10.30;52.70;;;;;;10496415;28;20207;-77
2021/04/28 01:16:54;;;;;;;5.77;5.03;;;10.30;52.90;;;;;;10490660;28;20283;-77
2021/04/28 01:21:57;;;;;;;6.30;5.80;;;10.30;52.80;;;;;;10523049;28;20285;-76
2021/04/28 01:27:01;;;;;;;5.93;5.33;;;10.30;52.90;;;;;;10536750;28;20220;-77
2021/04/28 01:32:04;;;;;;;5.73;5.27;;;10.20;53.30;;;;;;10509639;28;20232;-77
2021/04/28 01:37:07;;;;;;;10.30;6.20;;;10.20;53.50;;;;;;10512665;28;20227;-77
2021/04/28 01:42:12;;;;;;;6.03;5.43;;;10.20;53.70;;;;;;10510954;28;20659;-77
2021/04/28 01:47:15;;;;;;;7.90;5.53;;;10.20;53.50;;;;;;10518097;28;20565;-77
2021/04/28 01:52:18;;;;;;;5.90;5.40;;;10.20;53.90;;;;;;10508223;28;20250;-77
2021/04/28 01:57:26;;;;;;;6.50;5.67;;;10.10;54.10;;;;;;10532761;28;20216;-77
2021/04/28 02:02:44;;;;;;;6.60;5.97;;;10.10;54.20;;;;;;10511882;28;20204;-77
2021/04/28 02:07:47;;;;;;;6.30;5.67;;;10.10;54.50;;;;;;10511293;28;20231;-77
2021/04/28 02:12:50;;;;;;;7.67;6.47;;;10.10;54.60;;;;;;10504335;28;20200;-77
2021/04/28 02:18:04;;;;;;;7.43;6.73;;;10.10;54.70;;;;;;10508247;28;20245;-77
2021/04/28 02:23:07;;;;;;;6.57;6.00;;;10.10;54.80;;;;;;10527016;28;20203;-77
2021/04/28 02:28:11;;;;;;;6.80;6.17;;;10.00;55.00;;;;;;10502995;28;20228;-77
2021/04/28 02:33:23;;;;;;;7.30;6.60;;;9.90;56.70;;;;;;10496069;28;20209;-77
2021/04/28 02:38:51;;;;;;;7.77;6.97;;;9.90;56.40;;;;;;10507066;28;20265;-77
2021/04/28 02:44:10;;;;;;;8.67;7.40;;;9.80;57.00;;;;;;10525212;28;20220;-77
2021/04/28 02:49:17;;;;;;;7.80;6.23;;;9.70;57.30;;;;;;10515062;28;20219;-77
2021/04/28 02:54:20;;;;;;;7.20;6.50;;;9.70;57.50;;;;;;10511095;28;20237;-77
2021/04/28 02:59:24;;;;;;;5.23;4.77;;;9.60;57.60;;;;;;10504659;28;20200;-77
2021/04/28 03:04:26;;;;;;;6.93;6.33;;;9.60;57.60;;;;;;10504094;28;20272;-77
2021/04/28 03:09:52;;;;;;;8.07;7.37;;;9.60;57.90;;;;;;10494478;28;20188;-77
2021/04/28 03:14:55;;;;;;;8.43;7.63;;;9.60;57.90;;;;;;10523269;28;20231;-77
2021/04/28 03:20:00;;;;;;;10.57;7.17;;;9.60;58.40;;;;;;10510436;28;20277;-76
2021/04/28 03:25:12;;;;;;;8.57;7.67;;;9.50;58.50;;;;;;10485811;28;20244;-77
2021/04/28 03:30:18;;;;;;;8.37;7.30;;;9.50;58.40;;;;;;10511855;28;20203;-77
2021/04/28 03:35:21;;;;;;;8.60;7.80;;;9.40;58.60;;;;;;10494574;22;20229;-79
2021/04/28 03:40:38;;;;;;;8.40;7.60;;;9.40;58.90;;;;;;10469233;28;20220;-79
2021/04/28 03:45:41;;;;;;;8.80;7.20;;;9.30;59.30;;;;;;10483863;28;20232;-79
2021/04/28 03:50:46;;;;;;;8.60;7.30;;;9.20;59.70;;;;;;10482661;28;20212;-79
2021/04/28 03:55:48;;;;;;;8.70;7.80;;;9.20;59.80;;;;;;10468797;28;20227;-79
2021/04/28 04:00:51;;;;;;;9.10;8.20;;;9.10;60.00;;;;;;10476582;28;20213;-79
2021/04/28 04:06:08;;;;;;;11.97;8.00;;;9.20;59.90;;;;;;10460571;28;20704;-79
2021/04/28 04:11:15;;;;;;;11.10;8.40;;;9.10;60.10;;;;;;10488822;28;20422;-79
2021/04/28 04:16:19;;;;;;;8.07;7.37;;;9.20;60.50;;;;;;10497004;28;20703;-80
2021/04/28 04:21:24;;;;;;;8.33;7.63;;;9.20;60.60;;;;;;10481655;28;20695;-79
2021/04/28 04:26:45;;;;;;;9.53;8.40;;;9.20;60.90;;;;;;10482126;28;20590;-79
2021/04/28 04:31:58;;;;;;;10.27;9.27;;;9.20;60.70;;;;;;10462442;28;20201;-82
2021/04/28 04:37:18;;;;;;;10.07;9.07;;;9.20;61.00;;;;;;10490569;28;20564;-83
2021/04/28 04:42:33;;;;;;;10.10;9.03;;;9.20;61.50;;;;;;10516841;28;20200;-82
2021/04/28 04:47:54;;;;;;;9.07;8.10;;;9.20;61.70;;;;;;10520252;28;20242;-81
2021/04/28 04:52:55;;;;;;;10.13;9.00;;;9.20;62.20;;;;;;10521819;28;20208;-84
2021/04/28 04:57:57;;;;;;;13.30;9.10;;;9.30;61.80;;;;;;10534958;28;20216;-80
2021/04/28 05:03:00;;;;;;;12.13;9.00;;;9.40;62.20;;;;;;10507866;28;20215;-80
2021/04/28 05:08:01;;;;;;;8.93;8.07;;;9.40;62.30;;;;;;10509134;28;20232;-83
2021/04/28 05:13:03;;;;;;;9.87;8.87;;;9.50;62.20;;;;;;10545573;28;20210;-81
2021/04/28 05:18:06;;;;;;;10.47;9.37;;;9.60;62.50;;;;;;10520004;28;20244;-81
2021/04/28 05:23:08;;;;;;;10.33;9.00;;;9.70;62.50;;;;;;10501253;28;20687;-82
2021/04/28 05:28:12;;;;;;;14.93;10.13;;;9.80;62.70;;;;;;10516364;28;20291;-82
2021/04/28 05:33:15;;;;;;;12.03;9.30;;;9.90;62.90;;;;;;10514272;28;20573;-83
2021/04/28 05:38:17;;;;;;;9.70;8.70;;;10.00;61.80;;;;;;10543088;28;20219;-83
2021/04/28 05:43:18;;;;;;;9.77;8.57;;;10.10;62.40;;;;;;10565058;28;20204;-83
2021/04/28 05:48:21;;;;;;;9.73;8.73;;;10.20;62.00;;;;;;10520050;28;20228;-85
2021/04/28 05:53:23;;;;;;;11.43;10.23;;;10.40;61.00;;;;;;10490723;28;20737;-84
2021/04/28 05:58:24;;;;;;;10.47;9.43;;;10.50;60.10;;;;;;10556490;28;20223;-83
2021/04/28 06:03:27;;;;;;;10.70;9.40;;;10.70;59.70;;;;;;10539618;28;20590;-83
2021/04/28 06:08:30;;;;;;;16.33;10.30;;;10.80;59.80;;;;;;10562441;28;20589;-83
2021/04/28 06:13:31;;;;;;;12.73;10.13;;;10.90;59.10;;;;;;10532389;28;20216;-83
2021/04/28 06:18:34;;;;;;;16.50;9.87;;;11.10;59.10;;;;;;10550843;28;20223;-83
2021/04/28 06:23:37;;;;;;;12.30;9.80;;;11.20;58.80;;;;;;10516164;28;20679;-83
2021/04/28 06:28:38;;;;;;;11.27;9.60;;;11.30;58.80;;;;;;10516698;28;20224;-82
2021/04/28 06:33:42;;;;;;;12.57;10.30;;;11.40;58.70;;;;;;10532721;28;20561;-84
2021/04/28 06:38:44;;;;;;;15.40;10.87;;;11.50;58.60;;;;;;10527494;28;20219;-83
2021/04/28 06:43:46;;;;;;;12.83;11.40;;;11.60;58.80;;;;;;10517641;28;20695;-82
2021/04/28 06:48:49;;;;;;;14.07;10.50;;;11.70;58.80;;;;;;10531376;28;20258;-81
2021/04/28 06:53:50;;;;;;;15.03;11.30;;;11.80;59.00;;;;;;10524146;28;20242;-83
2021/04/28 06:58:52;;;;;;;12.20;10.30;;;11.90;59.10;;;;;;10514840;28;20240;-85
2021/04/28 07:03:55;;;;;;;14.43;11.00;;;12.00;59.00;;;;;;10533398;28;20227;-83
2021/04/28 07:08:57;;;;;;;13.17;10.10;;;12.20;58.70;;;;;;10505360;28;20277;-81
2021/04/28 07:13:58;;;;;;;12.80;11.50;;;12.30;58.80;;;;;;10506112;28;20235;-81
2021/04/28 07:19:01;;;;;;;12.40;10.30;;;12.50;58.70;;;;;;10515607;28;20289;-81
2021/04/28 07:24:04;;;;;;;12.20;11.03;;;12.60;58.40;;;;;;10524873;28;20219;-81
2021/04/28 07:29:06;;;;;;;12.70;10.40;;;12.80;58.10;;;;;;10537503;28;20591;-82
2021/04/28 07:34:08;;;;;;;12.80;10.80;;;13.00;57.90;;;;;;10505620;28;20235;-84
2021/04/28 07:39:11;;;;;;;12.50;11.03;;;13.30;57.90;;;;;;10500168;28;20711;-82
2021/04/28 07:44:14;;;;;;;11.23;9.70;;;13.70;57.40;;;;;;10476836;28;20200;-81
2021/04/28 07:49:17;;;;;;;12.33;10.80;;;14.10;56.60;;;;;;10487289;28;20256;-83
2021/04/28 07:54:19;;;;;;;10.53;9.43;;;14.50;55.70;;;;;;10465943;28;20307;-83
2021/04/28 07:59:20;;;;;;;12.80;9.73;;;14.80;55.70;;;;;;10478931;28;20212;-83
2021/04/28 08:04:24;;;;;;;12.03;10.00;;;15.10;54.80;;;;;;10493830;28;20215;-81
2021/04/28 08:09:26;;;;;;;11.17;9.87;;;15.50;55.00;;;;;;10485419;28;20228;-84
2021/04/28 08:14:28;;;;;;;12.37;11.00;;;15.80;54.40;;;;;;10491106;28;20219;-84
2021/04/28 08:19:30;;;;;;;12.33;11.07;;;16.10;53.60;;;;;;10476881;28;20201;-84
2021/04/28 08:24:32;;;;;;;14.57;10.23;;;16.40;53.70;;;;;;10461408;28;20219;-84
2021/04/28 08:29:34;;;;;;;11.60;9.70;;;16.70;53.40;;;;;;10480771;28;20236;-83
2021/04/28 08:34:36;;;;;;;13.13;10.17;;;17.00;53.00;;;;;;10460635;28;20711;-83
2021/04/28 08:39:38;;;;;;;11.93;10.57;;;17.40;52.50;;;;;;10528639;28;20674;-84
2021/04/28 08:44:40;;;;;;;11.50;9.80;;;17.70;52.20;;;;;;10524060;28;20243;-84
2021/04/28 08:49:45;;;;;;;10.80;9.30;;;18.20;51.40;;;;;;10536564;28;20211;-83
2021/04/28 08:54:47;;;;;;;17.43;10.80;;;18.70;50.90;;;;;;10488272;28;20661;-83
2021/04/28 08:59:49;;;;;;;10.00;9.00;;;19.20;49.60;;;;;;10535361;28;20327;-84
2021/04/28 09:05:09;;;;;;;13.93;10.20;;;19.60;50.10;;;;;;10525849;28;20223;-84
2021/04/28 09:10:13;;;;;;;13.87;10.80;;;20.00;48.70;;;;;;10538292;28;20212;-84
2021/04/28 09:15:15;;;;;;;11.57;9.20;;;20.20;48.70;;;;;;10521699;28;20215;-83
2021/04/28 09:20:24;;;;;;;14.50;10.47;;;20.50;47.90;;;;;;10528290;28;20230;-83
2021/04/28 09:25:46;;;;;;;13.50;9.40;;;20.90;47.20;;;;;;10526565;28;20223;-86
2021/04/28 09:31:17;;;;;;;13.73;11.10;;;21.10;45.50;;;;;;10472637;28;20212;-87
2021/04/28 09:36:28;;;;;;;11.63;9.63;;;21.30;44.40;;;;;;10509952;22;20246;-76
2021/04/28 09:41:35;;;;;;;13.17;9.70;;;21.40;43.60;;;;;;10453253;28;20214;-77
2021/04/28 09:46:37;;;;;;;14.40;9.20;;;21.50;44.00;;;;;;10451156;28;20229;-76
2021/04/28 09:51:42;;;;;;;10.80;9.70;;;21.70;44.10;;;;;;10483275;28;20681;-77
2021/04/28 09:56:44;;;;;;;10.10;8.77;;;22.00;44.10;;;;;;10492416;28;20553;-77
2021/04/28 10:01:46;;;;;;;13.20;10.93;;;22.10;42.80;;;;;;10457094;28;20247;-77
2021/04/28 10:06:49;;;;;;;14.13;8.93;;;22.20;42.20;;;;;;10450813;28;20334;-76
2021/04/28 10:11:51;;;;;;;13.63;10.00;;;22.50;41.90;;;;;;10459414;28;20243;-77
2021/04/28 10:16:54;;;;;;;10.20;9.20;;;22.50;42.70;;;;;;10460277;28;20738;-76
2021/04/28 10:21:59;;;;;;;9.90;8.90;;;22.10;39.60;;;;;;10415140;28;20574;-77
2021/04/28 10:27:04;;;;;;;10.03;7.73;;;21.60;41.90;;;;;;10441260;28;20336;-76
2021/04/28 10:32:08;;;;;;;9.60;8.27;;;21.10;42.00;;;;;;10490463;28;20286;-77
2021/04/28 10:37:11;;;;;;;15.50;8.43;;;20.80;41.60;;;;;;10506651;28;20240;-76
2021/04/28 10:42:30;;;;;;;10.10;8.67;;;20.40;42.40;;;;;;10532603;28;20219;-77
2021/04/28 10:47:40;;;;;;;9.43;8.40;;;20.30;41.20;;;;;;10531780;28;20235;-76
2021/04/28 10:52:45;;;;;;;9.60;8.67;;;20.10;42.00;;;;;;10482856;28;20215;-77
2021/04/28 10:57:47;;;;;;;8.87;6.87;;;20.00;40.40;;;;;;10521708;28;20220;-77
2021/04/28 11:02:49;;;;;;;10.53;7.80;;;20.00;41.50;;;;;;10532104;28;20212;-76
2021/04/28 11:07:56;;;;;;;9.00;7.10;;;20.00;40.20;;;;;;10530579;28;20239;-76
2021/04/28 11:13:06;;;;;;;9.20;7.10;;;20.20;40.20;;;;;;10529271;28;20206;-77
2021/04/28 11:18:26;;;;;;;8.10;7.30;;;20.40;40.40;;;;;;10530526;28;20310;-76
2021/04/28 11:23:29;;;;;;;9.50;7.13;;;20.50;38.30;;;;;;10513008;28;20683;-77
2021/04/28 11:28:36;;;;;;;7.43;6.73;;;20.40;39.90;;;;;;10530748;28;20227;-76
2021/04/28 11:33:38;;;;;;;8.20;7.40;;;20.40;40.20;;;;;;10530113;28;20661;-77
2021/04/28 11:38:43;;;;;;;7.73;6.93;;;20.40;40.10;;;;;;10529659;28;20326;-76
2021/04/28 11:43:47;;;;;;;10.03;7.57;;;20.40;39.90;;;;;;10501100;28;20605;-77
2021/04/28 11:48:51;;;;;;;8.03;6.53;;;20.40;39.30;;;;;;10471354;28;21225;-77
2021/04/28 11:53:56;;;;;;;6.80;5.90;;;20.30;40.50;;;;;;10427320;28;20211;-77
2021/04/28 11:58:59;;;;;;;7.50;6.80;;;20.30;39.80;;;;;;10453792;28;20362;-77
2021/04/28 12:04:06;;;;;;;6.43;5.60;;;20.40;37.90;;;;;;10471700;28;20291;-77
2021/04/28 12:09:15;;;;;;;8.40;6.70;;;20.50;38.70;;;;;;10449270;28;20870;-77
2021/04/28 12:14:24;;;;;;;6.43;5.37;;;20.60;38.30;;;;;;10471951;28;20209;-77
2021/04/28 12:19:27;;;;;;;6.57;5.90;;;20.60;38.30;;;;;;10469303;28;20631;-77
2021/04/28 12:24:31;;;;;;;4.17;3.87;;;20.80;38.30;;;;;;10471554;28;20207;-77
2021/04/28 12:29:33;;;;;;;7.77;6.70;;;20.90;37.30;;;;;;10482975;28;20236;-77
2021/04/28 12:34:36;;;;;;;10.87;8.50;;;21.10;38.60;;;;;;10453598;28;20204;-77
2021/04/28 12:39:39;;;;;;;11.03;8.43;;;21.10;37.90;;;;;;10432996;28;20233;-77
2021/04/28 12:44:41;;;;;;;10.30;8.10;;;21.00;38.50;;;;;;10402066;28;20681;-77
2021/04/28 12:49:52;;;;;;;11.23;8.53;;;20.80;38.30;;;;;;10427374;28;20235;-77
2021/04/28 12:54:55;;;;;;;8.00;7.20;;;20.80;38.40;;;;;;10411049;28;20308;-77
2021/04/28 13:00:08;;;;;;;10.83;6.77;;;20.80;38.90;;;;;;10427964;28;20213;-77
2021/04/28 13:05:10;;;;;;;8.67;7.63;;;20.80;39.00;;;;;;10428937;28;20204;-77
2021/04/28 13:10:14;;;;;;;9.07;6.40;;;20.90;39.60;;;;;;10464609;28;20233;-77
2021/04/28 13:15:15;;;;;;;7.90;6.90;;;21.00;39.20;;;;;;10483980;28;20205;-77
2021/04/28 13:20:18;;;;;;;8.53;6.40;;;21.10;40.00;;;;;;10485037;28;20206;-77
2021/04/28 13:25:21;;;;;;;7.70;6.60;;;21.00;41.10;;;;;;10422569;28;20263;-77
2021/04/28 13:30:23;;;;;;;7.13;6.40;;;21.00;41.00;;;;;;10490042;28;20238;-77
2021/04/28 13:35:27;;;;;;;9.67;7.43;;;20.90;42.10;;;;;;10467012;28;20291;-77
2021/04/28 13:40:33;;;;;;;8.87;7.10;;;21.00;41.50;;;;;;10511748;28;20242;-77
2021/04/28 13:45:36;;;;;;;8.70;7.30;;;21.00;42.40;;;;;;10502917;28;20219;-77
2021/04/28 13:50:39;;;;;;;8.43;6.20;;;21.10;42.00;;;;;;10538097;28;20216;-77
2021/04/28 13:55:41;;;;;;;7.80;7.00;;;21.10;40.50;;;;;;10539971;28;20212;-77
2021/04/28 14:00:46;;;;;;;7.13;5.90;;;21.10;40.60;;;;;;10504880;28;20238;-77
2021/04/28 14:05:47;;;;;;;9.07;6.80;;;21.20;41.60;;;;;;10522428;28;20668;-77
2021/04/28 14:10:50;;;;;;;6.87;6.17;;;21.20;40.90;;;;;;10540606;28;20223;-77
2021/04/28 14:15:51;;;;;;;8.57;6.43;;;21.20;40.40;;;;;;10538870;28;20564;-77
2021/04/28 14:20:53;;;;;;;6.90;6.10;;;21.20;40.80;;;;;;10502549;28;20219;-77
2021/04/28 14:25:56;;;;;;;7.80;6.70;;;21.20;40.50;;;;;;10538351;28;20216;-77
2021/04/28 14:30:58;;;;;;;6.00;5.40;;;21.30;40.20;;;;;;10519683;28;20223;-77
2021/04/28 14:35:59;;;;;;;7.23;6.50;;;21.40;41.20;;;;;;10538300;28;20227;-77
2021/04/28 14:41:02;;;;;;;6.97;6.23;;;21.50;40.60;;;;;;10529868;28;20230;-77
2021/04/28 14:46:04;;;;;;;7.33;5.60;;;21.50;41.20;;;;;;10520091;28;20243;-77
2021/04/28 14:51:06;;;;;;;6.57;5.90;;;21.60;40.70;;;;;;10520850;28;20612;-77
2021/04/28 14:56:09;;;;;;;9.77;6.60;;;21.50;40.20;;;;;;10520150;28;20224;-77
2021/04/28 15:01:12;;;;;;;7.20;5.97;;;21.50;41.20;;;;;;10511858;28;20567;-77
2021/04/28 15:06:14;;;;;;;6.47;5.87;;;21.40;40.60;;;;;;10477935;28;20228;-77
2021/04/28 15:11:16;;;;;;;6.57;5.50;;;21.30;40.70;;;;;;10496139;28;20553;-77
2021/04/28 15:16:18;;;;;;;7.60;6.73;;;21.30;40.20;;;;;;10498463;28;20313;-77
2021/04/28 15:21:22;;;;;;;7.63;6.50;;;21.30;39.40;;;;;;10535180;28;20694;-77
2021/04/28 15:26:24;;;;;;;6.77;5.93;;;21.20;39.70;;;;;;10536382;28;20247;-77
2021/04/28 15:31:26;;;;;;;6.97;6.27;;;21.20;39.70;;;;;;10525040;28;20226;-77
2021/04/28 15:36:30;;;;;;;5.97;5.37;;;21.20;39.50;;;;;;10506015;22;20227;-84
2021/04/28 15:41:37;;;;;;;6.07;4.60;;;21.10;41.20;;;;;;10483196;28;20213;-84
2021/04/28 15:46:39;;;;;;;5.70;4.93;;;21.10;42.40;;;;;;10492314;28;20235;-84
2021/04/28 15:51:40;;;;;;;6.23;5.10;;;21.00;40.30;;;;;;10506268;28;20236;-83
2021/04/28 15:56:45;;;;;;;8.40;5.40;;;21.00;41.30;;;;;;10490625;28;20212;-84
2021/04/28 16:01:47;;;;;;;6.50;5.70;;;21.00;41.20;;;;;;10474770;28;20538;-84
2021/04/28 16:06:49;;;;;;;4.90;4.50;;;21.00;40.40;;;;;;10471078;28;20695;-83
2021/04/28 16:11:51;;;;;;;5.40;4.90;;;21.00;41.80;;;;;;10489193;28;20208;-85
2021/04/28 16:16:53;;;;;;;6.30;5.40;;;20.90;41.00;;;;;;10489861;28;20553;-83
2021/04/28 16:21:56;;;;;;;11.90;6.53;;;20.90;40.60;;;;;;10491086;28;20294;-85
2021/04/28 16:26:59;;;;;;;4.40;3.93;;;20.80;40.60;;;;;;10490934;28;20252;-84
2021/04/28 16:32:00;;;;;;;6.80;4.80;;;20.70;41.20;;;;;;10511532;28;20643;-84
2021/04/28 16:37:02;;;;;;;5.30;4.80;;;20.50;42.80;;;;;;10507440;28;20221;-84
2021/04/28 16:42:05;;;;;;;5.10;4.63;;;20.40;42.70;;;;;;10489326;28;20291;-82
2021/04/28 16:47:08;;;;;;;6.60;5.17;;;20.20;42.80;;;;;;10480212;28;20228;-82
2021/04/28 16:52:11;;;;;;;6.53;5.93;;;20.20;42.50;;;;;;10506629;28;20216;-80
2021/04/28 16:57:14;;;;;;;5.30;4.80;;;20.10;43.30;;;;;;10493584;28;20215;-82
2021/04/28 17:02:15;;;;;;;5.40;4.90;;;20.10;44.90;;;;;;10489025;28;20250;-83
2021/04/28 17:07:17;;;;;;;4.93;4.27;;;20.00;44.70;;;;;;10488702;28;20772;-81
2021/04/28 17:12:20;;;;;;;6.47;4.10;;;20.00;45.90;;;;;;10507183;28;20313;-84
2021/04/28 17:17:22;;;;;;;5.83;5.20;;;19.90;44.40;;;;;;10490657;28;20220;-83
2021/04/28 17:22:25;;;;;;;5.53;5.03;;;19.80;45.20;;;;;;10468183;28;20209;-83
2021/04/28 17:27:27;;;;;;;4.83;4.13;;;19.80;45.00;;;;;;10501447;28;20715;-84
2021/04/28 17:32:29;;;;;;;5.70;5.20;;;19.70;44.90;;;;;;10503326;28;20226;-82
2021/04/28 17:37:31;;;;;;;6.83;5.13;;;19.60;46.40;;;;;;10470474;28;20271;-83
2021/04/28 17:42:34;;;;;;;8.70;5.53;;;19.50;44.90;;;;;;10484810;28;20315;-81
2021/04/28 17:47:35;;;;;;;5.00;4.60;;;19.40;45.20;;;;;;10469093;28;20244;-83
2021/04/28 17:52:38;;;;;;;4.87;4.37;;;19.20;44.60;;;;;;10468212;28;20270;-81
2021/04/28 17:57:40;;;;;;;5.40;4.90;;;19.20;46.10;;;;;;10486084;28;20216;-80
2021/04/28 18:02:43;;;;;;;6.23;5.60;;;19.10;46.10;;;;;;10483812;28;20650;-82
2021/04/28 18:07:45;;;;;;;5.07;4.53;;;19.00;47.30;;;;;;10486170;28;20240;-82
2021/04/28 18:12:48;;;;;;;6.20;4.10;;;18.90;48.50;;;;;;10503322;28;20200;-79
2021/04/28 18:17:50;;;;;;;5.00;4.50;;;18.80;49.10;;;;;;10469358;28;20225;-83
2021/04/28 18:22:52;;;;;;;7.07;5.07;;;18.70;48.60;;;;;;10471937;28;20201;-84
2021/04/28 18:27:55;;;;;;;5.77;4.03;;;18.60;48.50;;;;;;10469448;28;20231;-82
2021/04/28 18:32:57;;;;;;;9.40;5.03;;;18.50;48.60;;;;;;10503698;28;20201;-84
2021/04/28 18:37:59;;;;;;;9.40;4.40;;;18.50;50.50;;;;;;10464636;28;20242;-84
2021/04/28 18:43:01;;;;;;;6.83;2.80;;;18.40;49.00;;;;;;10468645;28;20212;-84
2021/04/28 18:48:03;;;;;;;3.33;3.13;;;18.30;50.50;;;;;;10500332;28;20315;-83
2021/04/28 18:53:05;;;;;;;4.33;3.73;;;18.20;51.10;;;;;;10465233;28;20216;-82
2021/04/28 18:58:08;;;;;;;6.87;4.30;;;18.00;51.50;;;;;;10479934;28;20231;-84
2021/04/28 19:03:09;;;;;;;5.57;3.83;;;17.90;51.90;;;;;;10483670;28;20205;-83
2021/04/28 19:08:11;;;;;;;3.73;3.30;;;17.70;52.80;;;;;;10495933;28;20703;-83
2021/04/28 19:13:14;;;;;;;3.67;3.37;;;17.60;53.00;;;;;;10477612;28;20824;-84
2021/04/28 19:18:16;;;;;;;3.40;3.20;;;17.50;53.70;;;;;;10494756;28;20231;-84
2021/04/28 19:23:17;;;;;;;4.63;3.30;;;17.50;54.10;;;;;;10475774;28;20323;-81
2021/04/28 19:28:20;;;;;;;4.23;3.27;;;17.40;54.50;;;;;;10479611;28;20259;-81
2021/04/28 19:33:22;;;;;;;3.47;2.90;;;17.30;54.80;;;;;;10481593;28;20620;-83
2021/04/28 19:38:23;;;;;;;3.23;2.87;;;17.30;55.30;;;;;;10447455;28;20739;-83
2021/04/28 19:43:26;;;;;;;3.70;3.40;;;17.20;55.60;;;;;;10465573;28;20228;-82
2021/04/28 19:48:28;;;;;;;4.17;3.07;;;17.20;55.80;;;;;;10441356;28;20324;-81
2021/04/28 19:53:30;;;;;;;3.60;3.30;;;17.10;56.20;;;;;;10425402;28;20303;-82
2021/04/28 19:58:33;;;;;;;3.13;2.93;;;17.00;56.50;;;;;;10442643;28;20225;-81
2021/04/28 20:03:36;;;;;;;3.53;3.23;;;16.90;56.60;;;;;;10443832;28;20216;-82
2021/04/28 20:08:38;;;;;;;3.70;3.40;;;16.90;57.00;;;;;;10426932;28;20283;-81
2021/04/28 20:13:42;;;;;;;3.40;3.17;;;16.80;57.00;;;;;;10423541;28;20626;-81
2021/04/28 20:18:43;;;;;;;3.40;3.10;;;16.80;57.30;;;;;;10428311;28;20253;-83
2021/04/28 20:23:45;;;;;;;3.87;3.57;;;16.70;57.80;;;;;;10462921;28;20265;-82
2021/04/28 20:28:48;;;;;;;4.00;3.57;;;16.70;58.10;;;;;;10442751;28;20224;-82
2021/04/28 20:33:50;;;;;;;3.03;2.83;;;16.70;58.30;;;;;;10429249;28;20242;-81
2021/04/28 20:38:52;;;;;;;3.20;2.90;;;16.60;58.50;;;;;;10472323;28;20252;-82
2021/04/28 20:43:55;;;;;;;3.90;3.13;;;16.60;59.00;;;;;;10487261;28;20219;-82
2021/04/28 20:48:57;;;;;;;5.70;3.40;;;16.60;62.90;;;;;;10488167;28;20267;-80
2021/04/28 20:54:00;;;;;;;3.90;3.60;;;16.60;66.70;;;;;;10497591;28;20213;-81
2021/04/28 20:59:04;;;;;;;5.70;4.73;;;16.50;70.50;;;;;;10465060;28;20301;-82
2021/04/28 21:04:06;;;;;;;3.90;3.60;;;16.40;71.60;;;;;;10470199;28;20219;-81
2021/04/28 21:09:10;;;;;;;4.93;4.60;;;16.20;73.00;;;;;;10478941;28;20254;-81
2021/04/28 21:14:13;;;;;;;5.30;4.80;;;16.10;76.10;;;;;;10481007;28;20631;-82
2021/04/28 21:19:15;;;;;;;5.50;4.43;;;16.00;76.50;;;;;;10483390;28;20251;-82
2021/04/28 21:24:17;;;;;;;4.80;4.40;;;15.70;78.70;;;;;;10464078;28;20686;-81
2021/04/28 21:29:20;;;;;;;5.40;5.00;;;15.50;81.20;;;;;;10456737;28;20680;-82
2021/04/28 21:34:22;;;;;;;7.50;6.50;;;15.20;85.40;;;;;;10471233;28;20207;-83
2021/04/28 21:39:25;;;;;;;8.93;6.63;;;14.90;87.60;;;;;;10480548;28;20228;-82
2021/04/28 21:44:28;;;;;;;9.40;8.40;;;14.60;90.30;;;;;;10471637;28;20213;-82
2021/04/28 21:49:30;;;;;;;8.77;8.07;;;14.30;92.20;;;;;;10493734;28;20224;-83
2021/04/28 21:54:32;;;;;;;8.90;8.07;;;14.00;93.90;;;;;;10476017;28;20228;-82
2021/04/28 21:59:34;;;;;;;9.90;9.20;;;13.90;96.30;;;;;;10501879;28;20639;-81
2021/04/28 22:04:36;;;;;;;11.97;11.00;;;13.80;99.30;;;;;;10502457;28;20298;-82
2021/04/28 22:09:37;;;;;;;13.00;12.03;;;13.60;99.90;;;;;;10485178;28;20216;-83
2021/04/28 22:14:40;;;;;;;13.33;12.43;;;13.50;99.90;;;;;;10513134;28;20216;-81
2021/04/28 22:19:42;;;;;;;13.13;12.27;;;13.40;99.90;;;;;;10501416;28;20225;-82
2021/04/28 22:24:43;;;;;;;14.13;13.13;;;13.30;99.90;;;;;;10503101;28;20215;-82
2021/04/28 22:29:46;;;;;;;15.27;14.27;;;13.20;99.90;;;;;;10497846;28;20267;-81
2021/04/28 22:34:48;;;;;;;13.77;12.60;;;13.20;99.90;;;;;;10463920;28;20208;-82
2021/04/28 22:39:50;;;;;;;14.30;13.10;;;13.20;99.90;;;;;;10500588;28;20287;-81
2021/04/28 22:44:52;;;;;;;14.40;13.30;;;13.10;99.90;;;;;;10478442;28;20519;-80
2021/04/28 22:49:54;;;;;;;14.33;13.33;;;13.10;99.90;;;;;;10498868;28;20643;-82
2021/04/28 22:54:56;;;;;;;15.80;14.60;;;13.20;99.90;;;;;;10496676;28;20706;-81
2021/04/28 22:59:58;;;;;;;19.40;17.77;;;13.30;99.90;;;;;;10495999;28;20220;-80
2021/04/28 23:05:00;;;;;;;18.47;16.90;;;13.40;99.90;;;;;;10496037;28;20211;-81
2021/04/28 23:10:02;;;;;;;14.43;13.20;;;13.40;99.90;;;;;;10461886;28;20236;-81
2021/04/28 23:15:05;;;;;;;13.93;13.03;;;13.50;99.90;;;;;;10494364;28;20207;-79
2021/04/28 23:20:09;;;;;;;14.63;13.63;;;13.40;99.90;;;;;;10472588;28;20220;-80
2021/04/28 23:31:28;;;;;;;14.87;13.77;;;13.40;99.90;;;;;;10504674;28;20196;-82
2021/04/28 23:36:30;;;;;;;15.27;14.07;;;13.30;99.90;;;;;;10511765;28;20315;-82
2021/04/28 23:41:34;;;;;;;13.93;12.93;;;13.20;99.90;;;;;;10507920;28;20196;-80
2021/04/28 23:46:37;;;;;;;14.63;13.60;;;13.20;99.90;;;;;;10495842;28;20228;-79
2021/04/28 23:51:39;;;;;;;16.33;15.13;;;13.10;99.90;;;;;;10503878;28;20615;-82
2021/04/28 23:56:41;;;;;;;13.30;12.37;;;13.20;99.90;;;;;;10525332;28;20295;-82
